<?xml version="1.0" encoding="utf-8"?>
<gpx xmlns:xsi="http://www.w3.org/2001/XMLSchema-instance" xmlns:xsd="http://www.w3.org/2001/XMLSchema" version="1.1" creator="Shapelink.com" xmlns="http://www.topografix.com/GPX/1/1" xmlns:gpxtpx="http://www.garmin.com/xmlschemas/TrackPointExtension/v1">
  <metadata>
    <name>Rullskidor 10.13 km, 2018-07-27</name>
    <desc></desc>
    <author><name>Stefan Östlund</name></author> 
    <time>2018-07-27T11:58:46Z</time>
  </metadata>
  <trk>
    <name>Rullskidor 10.13 km, 2018-07-27</name>
    <trkseg>
      <trkpt lat="62.317655655987" lon="17.439127671344">
        <ele>16.8</ele>
        <time>2018-07-27T11:58:46Z</time>
      </trkpt>
      <trkpt lat="62.317638892187" lon="17.439154074329">
        <ele>16.8</ele>
        <time>2018-07-27T11:58:48Z</time>
      </trkpt>
      <trkpt lat="62.317487598892" lon="17.439376865231">
        <ele>16.8</ele>
        <time>2018-07-27T11:58:54Z</time>
      </trkpt>
      <trkpt lat="62.317265478542" lon="17.439687330807">
        <ele>17</ele>
        <time>2018-07-27T11:59:00Z</time>
      </trkpt>
      <trkpt lat="62.317034473378" lon="17.440084046134">
        <ele>16.4</ele>
        <time>2018-07-27T11:59:06Z</time>
      </trkpt>
      <trkpt lat="62.316997257742" lon="17.440148419126">
        <ele>16.2</ele>
        <time>2018-07-27T11:59:07Z</time>
      </trkpt>
      <trkpt lat="62.316783603111" lon="17.440557204389">
        <ele>15.4</ele>
        <time>2018-07-27T11:59:13Z</time>
      </trkpt>
      <trkpt lat="62.31674596838" lon="17.440614201309">
        <ele>15.8</ele>
        <time>2018-07-27T11:59:14Z</time>
      </trkpt>
      <trkpt lat="62.316626191029" lon="17.440792316684">
        <ele>15</ele>
        <time>2018-07-27T11:59:17Z</time>
      </trkpt>
      <trkpt lat="62.316393593304" lon="17.441143602113">
        <ele>14.2</ele>
        <time>2018-07-27T11:59:23Z</time>
      </trkpt>
      <trkpt lat="62.316326370466" lon="17.441256506306">
        <ele>14</ele>
        <time>2018-07-27T11:59:25Z</time>
      </trkpt>
      <trkpt lat="62.316219920336" lon="17.441470328575">
        <ele>13.6</ele>
        <time>2018-07-27T11:59:29Z</time>
      </trkpt>
      <trkpt lat="62.316140208467" lon="17.441698316255">
        <ele>12.8</ele>
        <time>2018-07-27T11:59:32Z</time>
      </trkpt>
      <trkpt lat="62.316081535167" lon="17.441902247882">
        <ele>11.6</ele>
        <time>2018-07-27T11:59:34Z</time>
      </trkpt>
      <trkpt lat="62.316015318157" lon="17.442124200594">
        <ele>9.4</ele>
        <time>2018-07-27T11:59:36Z</time>
      </trkpt>
      <trkpt lat="62.315944826378" lon="17.44233659794">
        <ele>7.8</ele>
        <time>2018-07-27T11:59:38Z</time>
      </trkpt>
      <trkpt lat="62.315837454239" lon="17.442619319427">
        <ele>6.6</ele>
        <time>2018-07-27T11:59:41Z</time>
      </trkpt>
      <trkpt lat="62.315589182361" lon="17.443117288106">
        <ele>6.2</ele>
        <time>2018-07-27T11:59:47Z</time>
      </trkpt>
      <trkpt lat="62.315407462769" lon="17.443454911038">
        <ele>7.8</ele>
        <time>2018-07-27T11:59:52Z</time>
      </trkpt>
      <trkpt lat="62.315145612213" lon="17.443935529184">
        <ele>7</ele>
        <time>2018-07-27T11:59:58Z</time>
      </trkpt>
      <trkpt lat="62.31509976322" lon="17.443994789217">
        <ele>6.8</ele>
        <time>2018-07-27T11:59:59Z</time>
      </trkpt>
      <trkpt lat="62.314800110295" lon="17.444272565383">
        <ele>5.8</ele>
        <time>2018-07-27T12:00:05Z</time>
      </trkpt>
      <trkpt lat="62.31475191437" lon="17.444311205942">
        <ele>5.6</ele>
        <time>2018-07-27T12:00:06Z</time>
      </trkpt>
      <trkpt lat="62.314473132376" lon="17.444514886112">
        <ele>5</ele>
        <time>2018-07-27T12:00:12Z</time>
      </trkpt>
      <trkpt lat="62.314382607856" lon="17.444589485022">
        <ele>5.2</ele>
        <time>2018-07-27T12:00:14Z</time>
      </trkpt>
      <trkpt lat="62.314099299636" lon="17.4448042293">
        <ele>5</ele>
        <time>2018-07-27T12:00:20Z</time>
      </trkpt>
      <trkpt lat="62.313833090492" lon="17.444977231716">
        <ele>5</ele>
        <time>2018-07-27T12:00:26Z</time>
      </trkpt>
      <trkpt lat="62.313600073672" lon="17.445058536146">
        <ele>5.8</ele>
        <time>2018-07-27T12:00:32Z</time>
      </trkpt>
      <trkpt lat="62.313360183694" lon="17.445175715108">
        <ele>6.2</ele>
        <time>2018-07-27T12:00:38Z</time>
      </trkpt>
      <trkpt lat="62.313102691726" lon="17.445378473269">
        <ele>6.2</ele>
        <time>2018-07-27T12:00:44Z</time>
      </trkpt>
      <trkpt lat="62.31284084117" lon="17.445597073221">
        <ele>6</ele>
        <time>2018-07-27T12:00:50Z</time>
      </trkpt>
      <trkpt lat="62.312560801891" lon="17.445751886914">
        <ele>5.8</ele>
        <time>2018-07-27T12:00:56Z</time>
      </trkpt>
      <trkpt lat="62.312383943801" lon="17.445873675921">
        <ele>5.6</ele>
        <time>2018-07-27T12:01:00Z</time>
      </trkpt>
      <trkpt lat="62.312240613311" lon="17.446028321976">
        <ele>4.4</ele>
        <time>2018-07-27T12:01:03Z</time>
      </trkpt>
      <trkpt lat="62.31209317569" lon="17.446166120412">
        <ele>3.4</ele>
        <time>2018-07-27T12:01:06Z</time>
      </trkpt>
      <trkpt lat="62.312000890971" lon="17.446230074309">
        <ele>3.4</ele>
        <time>2018-07-27T12:01:08Z</time>
      </trkpt>
      <trkpt lat="62.311719091493" lon="17.446412883548">
        <ele>3.6</ele>
        <time>2018-07-27T12:01:14Z</time>
      </trkpt>
      <trkpt lat="62.311532929494" lon="17.44657532477">
        <ele>3</ele>
        <time>2018-07-27T12:01:18Z</time>
      </trkpt>
      <trkpt lat="62.311319861596" lon="17.446765174805">
        <ele>4</ele>
        <time>2018-07-27T12:01:24Z</time>
      </trkpt>
      <trkpt lat="62.311255488604" lon="17.446829212521">
        <ele>4.4</ele>
        <time>2018-07-27T12:01:26Z</time>
      </trkpt>
      <trkpt lat="62.311115175598" lon="17.447024510791">
        <ele>5.4</ele>
        <time>2018-07-27T12:01:31Z</time>
      </trkpt>
      <trkpt lat="62.310980143189" lon="17.447221317803">
        <ele>5.6</ele>
        <time>2018-07-27T12:01:37Z</time>
      </trkpt>
      <trkpt lat="62.310868915376" lon="17.447335814557">
        <ele>5.8</ele>
        <time>2018-07-27T12:01:43Z</time>
      </trkpt>
      <trkpt lat="62.310805129117" lon="17.447416113159">
        <ele>6.6</ele>
        <time>2018-07-27T12:01:46Z</time>
      </trkpt>
      <trkpt lat="62.310728099456" lon="17.447516863597">
        <ele>8</ele>
        <time>2018-07-27T12:01:49Z</time>
      </trkpt>
      <trkpt lat="62.310587534993" lon="17.447671928747">
        <ele>8.8</ele>
        <time>2018-07-27T12:01:55Z</time>
      </trkpt>
      <trkpt lat="62.310474379343" lon="17.447776953954">
        <ele>9</ele>
        <time>2018-07-27T12:02:00Z</time>
      </trkpt>
      <trkpt lat="62.310337083821" lon="17.447897904771">
        <ele>10</ele>
        <time>2018-07-27T12:02:06Z</time>
      </trkpt>
      <trkpt lat="62.310218228479" lon="17.448077445069">
        <ele>10</ele>
        <time>2018-07-27T12:02:11Z</time>
      </trkpt>
      <trkpt lat="62.310126279036" lon="17.448216249333">
        <ele>11.2</ele>
        <time>2018-07-27T12:02:15Z</time>
      </trkpt>
      <trkpt lat="62.310057128361" lon="17.448303588731">
        <ele>12.2</ele>
        <time>2018-07-27T12:02:19Z</time>
      </trkpt>
      <trkpt lat="62.30993902739" lon="17.448430406878">
        <ele>12</ele>
        <time>2018-07-27T12:02:25Z</time>
      </trkpt>
      <trkpt lat="62.309851687992" lon="17.44857105516">
        <ele>13.6</ele>
        <time>2018-07-27T12:02:30Z</time>
      </trkpt>
      <trkpt lat="62.309706681122" lon="17.448781608488">
        <ele>13.8</ele>
        <time>2018-07-27T12:02:36Z</time>
      </trkpt>
      <trkpt lat="62.309585814124" lon="17.448984031373">
        <ele>13.6</ele>
        <time>2018-07-27T12:02:40Z</time>
      </trkpt>
      <trkpt lat="62.309458073968" lon="17.44919550671">
        <ele>12.2</ele>
        <time>2018-07-27T12:02:44Z</time>
      </trkpt>
      <trkpt lat="62.309274845634" lon="17.449542768827">
        <ele>11.6</ele>
        <time>2018-07-27T12:02:50Z</time>
      </trkpt>
      <trkpt lat="62.309132269515" lon="17.449895060084">
        <ele>12.2</ele>
        <time>2018-07-27T12:02:56Z</time>
      </trkpt>
      <trkpt lat="62.30903545857" lon="17.450234443215">
        <ele>13.4</ele>
        <time>2018-07-27T12:03:01Z</time>
      </trkpt>
      <trkpt lat="62.308924985128" lon="17.450755797395">
        <ele>13</ele>
        <time>2018-07-27T12:03:07Z</time>
      </trkpt>
      <trkpt lat="62.30890470093" lon="17.450854368539">
        <ele>11.8</ele>
        <time>2018-07-27T12:03:08Z</time>
      </trkpt>
      <trkpt lat="62.308884081456" lon="17.450959477565">
        <ele>10.4</ele>
        <time>2018-07-27T12:03:09Z</time>
      </trkpt>
      <trkpt lat="62.308861869421" lon="17.451070453921">
        <ele>9.4</ele>
        <time>2018-07-27T12:03:10Z</time>
      </trkpt>
      <trkpt lat="62.308815433695" lon="17.451295675574">
        <ele>8</ele>
        <time>2018-07-27T12:03:12Z</time>
      </trkpt>
      <trkpt lat="62.308764387924" lon="17.451546294384">
        <ele>6.6</ele>
        <time>2018-07-27T12:03:14Z</time>
      </trkpt>
      <trkpt lat="62.308706133719" lon="17.451820298695">
        <ele>5.2</ele>
        <time>2018-07-27T12:03:16Z</time>
      </trkpt>
      <trkpt lat="62.30863983289" lon="17.452080053776">
        <ele>3.4</ele>
        <time>2018-07-27T12:03:18Z</time>
      </trkpt>
      <trkpt lat="62.308529694724" lon="17.452375851027">
        <ele>2.2</ele>
        <time>2018-07-27T12:03:21Z</time>
      </trkpt>
      <trkpt lat="62.308467333388" lon="17.452531167634">
        <ele>2.2</ele>
        <time>2018-07-27T12:03:23Z</time>
      </trkpt>
      <trkpt lat="62.308405223509" lon="17.452774410372">
        <ele>3.4</ele>
        <time>2018-07-27T12:03:26Z</time>
      </trkpt>
      <trkpt lat="62.308331630427" lon="17.453385367063">
        <ele>2.8</ele>
        <time>2018-07-27T12:03:32Z</time>
      </trkpt>
      <trkpt lat="62.308319560491" lon="17.453591561803">
        <ele>2</ele>
        <time>2018-07-27T12:03:34Z</time>
      </trkpt>
      <trkpt lat="62.308315034265" lon="17.453680409943">
        <ele>1.6</ele>
        <time>2018-07-27T12:03:35Z</time>
      </trkpt>
      <trkpt lat="62.308171955232" lon="17.454375856186">
        <ele>2.4</ele>
        <time>2018-07-27T12:03:44Z</time>
      </trkpt>
      <trkpt lat="62.308174302164" lon="17.454404606103">
        <ele>2.6</ele>
        <time>2018-07-27T12:03:46Z</time>
      </trkpt>
      <trkpt lat="62.308190227774" lon="17.454377616385">
        <ele>2.8</ele>
        <time>2018-07-27T12:03:49Z</time>
      </trkpt>
      <trkpt lat="62.30821403237" lon="17.454235794637">
        <ele>3</ele>
        <time>2018-07-27T12:03:53Z</time>
      </trkpt>
      <trkpt lat="62.308223503917" lon="17.454183743038">
        <ele>3</ele>
        <time>2018-07-27T12:03:54Z</time>
      </trkpt>
      <trkpt lat="62.308280500837" lon="17.45375777488">
        <ele>3</ele>
        <time>2018-07-27T12:04:00Z</time>
      </trkpt>
      <trkpt lat="62.308299946845" lon="17.453236839795">
        <ele>4.2</ele>
        <time>2018-07-27T12:04:06Z</time>
      </trkpt>
      <trkpt lat="62.308365828579" lon="17.452830652921">
        <ele>4.2</ele>
        <time>2018-07-27T12:04:12Z</time>
      </trkpt>
      <trkpt lat="62.308418634549" lon="17.452570730202">
        <ele>5</ele>
        <time>2018-07-27T12:04:18Z</time>
      </trkpt>
      <trkpt lat="62.30843196177" lon="17.452520271164">
        <ele>5.2</ele>
        <time>2018-07-27T12:04:19Z</time>
      </trkpt>
      <trkpt lat="62.308540591194" lon="17.452217684574">
        <ele>6.2</ele>
        <time>2018-07-27T12:04:25Z</time>
      </trkpt>
      <trkpt lat="62.308663972762" lon="17.451829602604">
        <ele>6.2</ele>
        <time>2018-07-27T12:04:31Z</time>
      </trkpt>
      <trkpt lat="62.308695237249" lon="17.451699934611">
        <ele>6.2</ele>
        <time>2018-07-27T12:04:33Z</time>
      </trkpt>
      <trkpt lat="62.30876807596" lon="17.45136558062">
        <ele>6.4</ele>
        <time>2018-07-27T12:04:39Z</time>
      </trkpt>
      <trkpt lat="62.308810572193" lon="17.451057545795">
        <ele>7.6</ele>
        <time>2018-07-27T12:04:44Z</time>
      </trkpt>
      <trkpt lat="62.308834125332" lon="17.4508727249">
        <ele>8.6</ele>
        <time>2018-07-27T12:04:48Z</time>
      </trkpt>
      <trkpt lat="62.308874861366" lon="17.450573826346">
        <ele>9.8</ele>
        <time>2018-07-27T12:04:54Z</time>
      </trkpt>
      <trkpt lat="62.308955495244" lon="17.450361596638">
        <ele>10.4</ele>
        <time>2018-07-27T12:05:00Z</time>
      </trkpt>
      <trkpt lat="62.308978964564" lon="17.450233269749">
        <ele>11</ele>
        <time>2018-07-27T12:05:03Z</time>
      </trkpt>
      <trkpt lat="62.3090077983" lon="17.449983740586">
        <ele>12.2</ele>
        <time>2018-07-27T12:05:07Z</time>
      </trkpt>
      <trkpt lat="62.309094048051" lon="17.449716609433">
        <ele>12.4</ele>
        <time>2018-07-27T12:05:13Z</time>
      </trkpt>
      <trkpt lat="62.309218938361" lon="17.449398851604">
        <ele>12.6</ele>
        <time>2018-07-27T12:05:19Z</time>
      </trkpt>
      <trkpt lat="62.30937744009" lon="17.449128786786">
        <ele>13</ele>
        <time>2018-07-27T12:05:25Z</time>
      </trkpt>
      <trkpt lat="62.309406609102" lon="17.44908654201">
        <ele>13.2</ele>
        <time>2018-07-27T12:05:26Z</time>
      </trkpt>
      <trkpt lat="62.309574330921" lon="17.448820165228">
        <ele>13.2</ele>
        <time>2018-07-27T12:05:32Z</time>
      </trkpt>
      <trkpt lat="62.309712548452" lon="17.448600810905">
        <ele>13.6</ele>
        <time>2018-07-27T12:05:38Z</time>
      </trkpt>
      <trkpt lat="62.309769629191" lon="17.448489499273">
        <ele>14.2</ele>
        <time>2018-07-27T12:05:41Z</time>
      </trkpt>
      <trkpt lat="62.309923353237" lon="17.448260673403">
        <ele>14</ele>
        <time>2018-07-27T12:05:47Z</time>
      </trkpt>
      <trkpt lat="62.309988648238" lon="17.448153049807">
        <ele>13.2</ele>
        <time>2018-07-27T12:05:49Z</time>
      </trkpt>
      <trkpt lat="62.310060900216" lon="17.44804299546">
        <ele>12</ele>
        <time>2018-07-27T12:05:51Z</time>
      </trkpt>
      <trkpt lat="62.31014438394" lon="17.447931097095">
        <ele>10.8</ele>
        <time>2018-07-27T12:05:53Z</time>
      </trkpt>
      <trkpt lat="62.310234321727" lon="17.447832442132">
        <ele>9.8</ele>
        <time>2018-07-27T12:05:55Z</time>
      </trkpt>
      <trkpt lat="62.310371449611" lon="17.447688776366">
        <ele>8.6</ele>
        <time>2018-07-27T12:05:58Z</time>
      </trkpt>
      <trkpt lat="62.310632797253" lon="17.447428183095">
        <ele>7.6</ele>
        <time>2018-07-27T12:06:03Z</time>
      </trkpt>
      <trkpt lat="62.310851900119" lon="17.447174043887">
        <ele>6.6</ele>
        <time>2018-07-27T12:06:07Z</time>
      </trkpt>
      <trkpt lat="62.311034374082" lon="17.446923005982">
        <ele>5</ele>
        <time>2018-07-27T12:06:10Z</time>
      </trkpt>
      <trkpt lat="62.311164880265" lon="17.446768695203">
        <ele>3.4</ele>
        <time>2018-07-27T12:06:12Z</time>
      </trkpt>
      <trkpt lat="62.311318436673" lon="17.446629052749">
        <ele>2</ele>
        <time>2018-07-27T12:06:14Z</time>
      </trkpt>
      <trkpt lat="62.311648348257" lon="17.446354796981">
        <ele>1</ele>
        <time>2018-07-27T12:06:19Z</time>
      </trkpt>
      <trkpt lat="62.311952024494" lon="17.446134688287">
        <ele>0.4</ele>
        <time>2018-07-27T12:06:25Z</time>
      </trkpt>
      <trkpt lat="62.312109017481" lon="17.445986244838">
        <ele>2.8</ele>
        <time>2018-07-27T12:06:29Z</time>
      </trkpt>
      <trkpt lat="62.312268441219" lon="17.445798238821">
        <ele>3.8</ele>
        <time>2018-07-27T12:06:33Z</time>
      </trkpt>
      <trkpt lat="62.312360642119" lon="17.445684077343">
        <ele>4.2</ele>
        <time>2018-07-27T12:06:36Z</time>
      </trkpt>
      <trkpt lat="62.312475306511" lon="17.445566814562">
        <ele>5</ele>
        <time>2018-07-27T12:06:40Z</time>
      </trkpt>
      <trkpt lat="62.312656607008" lon="17.445424825176">
        <ele>4.8</ele>
        <time>2018-07-27T12:06:46Z</time>
      </trkpt>
      <trkpt lat="62.312828938872" lon="17.445330193525">
        <ele>5.8</ele>
        <time>2018-07-27T12:06:52Z</time>
      </trkpt>
      <trkpt lat="62.312992469741" lon="17.44520404593">
        <ele>5.8</ele>
        <time>2018-07-27T12:06:58Z</time>
      </trkpt>
      <trkpt lat="62.313058686751" lon="17.445162471706">
        <ele>6</ele>
        <time>2018-07-27T12:07:00Z</time>
      </trkpt>
      <trkpt lat="62.313267647518" lon="17.445036827025">
        <ele>6.4</ele>
        <time>2018-07-27T12:07:06Z</time>
      </trkpt>
      <trkpt lat="62.313477278837" lon="17.444927024135">
        <ele>6.8</ele>
        <time>2018-07-27T12:07:12Z</time>
      </trkpt>
      <trkpt lat="62.313688586536" lon="17.444845552067">
        <ele>6.6</ele>
        <time>2018-07-27T12:07:18Z</time>
      </trkpt>
      <trkpt lat="62.313911545076" lon="17.444731725865">
        <ele>6</ele>
        <time>2018-07-27T12:07:24Z</time>
      </trkpt>
      <trkpt lat="62.313984048511" lon="17.444669196891">
        <ele>6</ele>
        <time>2018-07-27T12:07:26Z</time>
      </trkpt>
      <trkpt lat="62.314214131666" lon="17.444477921933">
        <ele>5.6</ele>
        <time>2018-07-27T12:07:32Z</time>
      </trkpt>
      <trkpt lat="62.314421835148" lon="17.444330568131">
        <ele>5.2</ele>
        <time>2018-07-27T12:07:38Z</time>
      </trkpt>
      <trkpt lat="62.314612020459" lon="17.444197882654">
        <ele>6</ele>
        <time>2018-07-27T12:07:44Z</time>
      </trkpt>
      <trkpt lat="62.31481310224" lon="17.44403560907">
        <ele>6</ele>
        <time>2018-07-27T12:07:50Z</time>
      </trkpt>
      <trkpt lat="62.315022230645" lon="17.443877526436">
        <ele>6.2</ele>
        <time>2018-07-27T12:07:56Z</time>
      </trkpt>
      <trkpt lat="62.315192969948" lon="17.443654484077">
        <ele>6.2</ele>
        <time>2018-07-27T12:08:02Z</time>
      </trkpt>
      <trkpt lat="62.31526572484" lon="17.443461700377">
        <ele>7</ele>
        <time>2018-07-27T12:08:06Z</time>
      </trkpt>
      <trkpt lat="62.315430261537" lon="17.443218038544">
        <ele>7.4</ele>
        <time>2018-07-27T12:08:12Z</time>
      </trkpt>
      <trkpt lat="62.315568814344" lon="17.442948979554">
        <ele>8</ele>
        <time>2018-07-27T12:08:18Z</time>
      </trkpt>
      <trkpt lat="62.315718179802" lon="17.442693750699">
        <ele>8.4</ele>
        <time>2018-07-27T12:08:24Z</time>
      </trkpt>
      <trkpt lat="62.315861091197" lon="17.442421674225">
        <ele>8.8</ele>
        <time>2018-07-27T12:08:30Z</time>
      </trkpt>
      <trkpt lat="62.315929152225" lon="17.442283456694">
        <ele>9.2</ele>
        <time>2018-07-27T12:08:33Z</time>
      </trkpt>
      <trkpt lat="62.316036692002" lon="17.44198036719">
        <ele>9.8</ele>
        <time>2018-07-27T12:08:39Z</time>
      </trkpt>
      <trkpt lat="62.31615085348" lon="17.441716504978">
        <ele>10</ele>
        <time>2018-07-27T12:08:45Z</time>
      </trkpt>
      <trkpt lat="62.316180525406" lon="17.441635116729">
        <ele>10.4</ele>
        <time>2018-07-27T12:08:47Z</time>
      </trkpt>
      <trkpt lat="62.316212628083" lon="17.441511316066">
        <ele>11.6</ele>
        <time>2018-07-27T12:08:50Z</time>
      </trkpt>
      <trkpt lat="62.316231068263" lon="17.441431101283">
        <ele>12</ele>
        <time>2018-07-27T12:08:52Z</time>
      </trkpt>
      <trkpt lat="62.316306840639" lon="17.441194815522">
        <ele>12.2</ele>
        <time>2018-07-27T12:08:58Z</time>
      </trkpt>
      <trkpt lat="62.316356126211" lon="17.441085934641">
        <ele>12.8</ele>
        <time>2018-07-27T12:09:01Z</time>
      </trkpt>
      <trkpt lat="62.316455787002" lon="17.440866328861">
        <ele>13.4</ele>
        <time>2018-07-27T12:09:07Z</time>
      </trkpt>
      <trkpt lat="62.316523177478" lon="17.440714532652">
        <ele>13.8</ele>
        <time>2018-07-27T12:09:11Z</time>
      </trkpt>
      <trkpt lat="62.316654773308" lon="17.440500039831">
        <ele>14.4</ele>
        <time>2018-07-27T12:09:17Z</time>
      </trkpt>
      <trkpt lat="62.316745800742" lon="17.440401468687">
        <ele>14.8</ele>
        <time>2018-07-27T12:09:21Z</time>
      </trkpt>
      <trkpt lat="62.316868511758" lon="17.440224107683">
        <ele>15</ele>
        <time>2018-07-27T12:09:27Z</time>
      </trkpt>
      <trkpt lat="62.31700245452" lon="17.439961838032">
        <ele>15.4</ele>
        <time>2018-07-27T12:09:33Z</time>
      </trkpt>
      <trkpt lat="62.317138492757" lon="17.439695964164">
        <ele>15.8</ele>
        <time>2018-07-27T12:09:39Z</time>
      </trkpt>
      <trkpt lat="62.317161040068" lon="17.439652378284">
        <ele>15.8</ele>
        <time>2018-07-27T12:09:40Z</time>
      </trkpt>
      <trkpt lat="62.317315853761" lon="17.4394565771">
        <ele>16.4</ele>
        <time>2018-07-27T12:09:46Z</time>
      </trkpt>
      <trkpt lat="62.317456166767" lon="17.439261530287">
        <ele>17</ele>
        <time>2018-07-27T12:09:52Z</time>
      </trkpt>
      <trkpt lat="62.317587594959" lon="17.439087354405">
        <ele>17.6</ele>
        <time>2018-07-27T12:09:58Z</time>
      </trkpt>
      <trkpt lat="62.317734529666" lon="17.438908568478">
        <ele>18</ele>
        <time>2018-07-27T12:10:04Z</time>
      </trkpt>
      <trkpt lat="62.317756154968" lon="17.438877471629">
        <ele>18.2</ele>
        <time>2018-07-27T12:10:05Z</time>
      </trkpt>
      <trkpt lat="62.317910717204" lon="17.438672785631">
        <ele>19</ele>
        <time>2018-07-27T12:10:11Z</time>
      </trkpt>
      <trkpt lat="62.318115403202" lon="17.438535741566">
        <ele>18.6</ele>
        <time>2018-07-27T12:10:19Z</time>
      </trkpt>
      <trkpt lat="62.318258482235" lon="17.438425854857">
        <ele>19.2</ele>
        <time>2018-07-27T12:10:24Z</time>
      </trkpt>
      <trkpt lat="62.318459061102" lon="17.43819342477">
        <ele>19.6</ele>
        <time>2018-07-27T12:10:30Z</time>
      </trkpt>
      <trkpt lat="62.318688222248" lon="17.43793526225">
        <ele>19.2</ele>
        <time>2018-07-27T12:10:36Z</time>
      </trkpt>
      <trkpt lat="62.31889927849" lon="17.437700233774">
        <ele>19</ele>
        <time>2018-07-27T12:10:42Z</time>
      </trkpt>
      <trkpt lat="62.319102623384" lon="17.437438383218">
        <ele>18.4</ele>
        <time>2018-07-27T12:10:48Z</time>
      </trkpt>
      <trkpt lat="62.319326252476" lon="17.437219028895">
        <ele>18.6</ele>
        <time>2018-07-27T12:10:54Z</time>
      </trkpt>
      <trkpt lat="62.319400264653" lon="17.437153482437">
        <ele>18.8</ele>
        <time>2018-07-27T12:10:56Z</time>
      </trkpt>
      <trkpt lat="62.319519119995" lon="17.437089863816">
        <ele>18.2</ele>
        <time>2018-07-27T12:10:59Z</time>
      </trkpt>
      <trkpt lat="62.319606207936" lon="17.437042338443">
        <ele>17.8</ele>
        <time>2018-07-27T12:11:01Z</time>
      </trkpt>
      <trkpt lat="62.319859341316" lon="17.436958854719">
        <ele>17.6</ele>
        <time>2018-07-27T12:11:07Z</time>
      </trkpt>
      <trkpt lat="62.320150863798" lon="17.4369000976">
        <ele>17.2</ele>
        <time>2018-07-27T12:11:13Z</time>
      </trkpt>
      <trkpt lat="62.320214063324" lon="17.43689674484">
        <ele>17</ele>
        <time>2018-07-27T12:11:14Z</time>
      </trkpt>
      <trkpt lat="62.320481362115" lon="17.436862546688">
        <ele>16.4</ele>
        <time>2018-07-27T12:11:20Z</time>
      </trkpt>
      <trkpt lat="62.320670206322" lon="17.436784092104">
        <ele>16</ele>
        <time>2018-07-27T12:11:24Z</time>
      </trkpt>
      <trkpt lat="62.32089919983" lon="17.436649981704">
        <ele>15.4</ele>
        <time>2018-07-27T12:11:29Z</time>
      </trkpt>
      <trkpt lat="62.321173371779" lon="17.436525175213">
        <ele>15.2</ele>
        <time>2018-07-27T12:11:35Z</time>
      </trkpt>
      <trkpt lat="62.321213772537" lon="17.436515200752">
        <ele>14.8</ele>
        <time>2018-07-27T12:11:36Z</time>
      </trkpt>
      <trkpt lat="62.321441173484" lon="17.436451246855">
        <ele>13.8</ele>
        <time>2018-07-27T12:11:42Z</time>
      </trkpt>
      <trkpt lat="62.321483082984" lon="17.436449402837">
        <ele>13.6</ele>
        <time>2018-07-27T12:11:43Z</time>
      </trkpt>
      <trkpt lat="62.321602860335" lon="17.43645334233">
        <ele>12</ele>
        <time>2018-07-27T12:11:46Z</time>
      </trkpt>
      <trkpt lat="62.321887174383" lon="17.436467926836">
        <ele>11.6</ele>
        <time>2018-07-27T12:11:52Z</time>
      </trkpt>
      <trkpt lat="62.321991864314" lon="17.436457114185">
        <ele>11.8</ele>
        <time>2018-07-27T12:11:54Z</time>
      </trkpt>
      <trkpt lat="62.32227969876" lon="17.436301713759">
        <ele>10.8</ele>
        <time>2018-07-27T12:11:59Z</time>
      </trkpt>
      <trkpt lat="62.322373995135" lon="17.436215966922">
        <ele>8.8</ele>
        <time>2018-07-27T12:12:01Z</time>
      </trkpt>
      <trkpt lat="62.322418419205" lon="17.436176571992">
        <ele>7.8</ele>
        <time>2018-07-27T12:12:02Z</time>
      </trkpt>
      <trkpt lat="62.322649843464" lon="17.435966018664">
        <ele>7.4</ele>
        <time>2018-07-27T12:12:08Z</time>
      </trkpt>
      <trkpt lat="62.322792754859" lon="17.435837440318">
        <ele>7.6</ele>
        <time>2018-07-27T12:12:14Z</time>
      </trkpt>
      <trkpt lat="62.322964248533" lon="17.435712466189">
        <ele>8.2</ele>
        <time>2018-07-27T12:12:20Z</time>
      </trkpt>
      <trkpt lat="62.323133143818" lon="17.435563603645">
        <ele>8.8</ele>
        <time>2018-07-27T12:12:25Z</time>
      </trkpt>
      <trkpt lat="62.32332827445" lon="17.435411388341">
        <ele>9.4</ele>
        <time>2018-07-27T12:12:31Z</time>
      </trkpt>
      <trkpt lat="62.323439083168" lon="17.435259340675">
        <ele>10</ele>
        <time>2018-07-27T12:12:35Z</time>
      </trkpt>
      <trkpt lat="62.323453835312" lon="17.435212318216">
        <ele>10.2</ele>
        <time>2018-07-27T12:12:36Z</time>
      </trkpt>
      <trkpt lat="62.323480322116" lon="17.434889698885">
        <ele>10.6</ele>
        <time>2018-07-27T12:12:42Z</time>
      </trkpt>
      <trkpt lat="62.323519800865" lon="17.434645534138">
        <ele>11</ele>
        <time>2018-07-27T12:12:48Z</time>
      </trkpt>
      <trkpt lat="62.32353530738" lon="17.434446799289">
        <ele>12</ele>
        <time>2018-07-27T12:12:52Z</time>
      </trkpt>
      <trkpt lat="62.32355710032" lon="17.434235156314">
        <ele>13.2</ele>
        <time>2018-07-27T12:12:57Z</time>
      </trkpt>
      <trkpt lat="62.323583000391" lon="17.434022172235">
        <ele>13.6</ele>
        <time>2018-07-27T12:13:03Z</time>
      </trkpt>
      <trkpt lat="62.323588029531" lon="17.433933575552">
        <ele>14.4</ele>
        <time>2018-07-27T12:13:05Z</time>
      </trkpt>
      <trkpt lat="62.323602865494" lon="17.433640209052">
        <ele>15.2</ele>
        <time>2018-07-27T12:13:11Z</time>
      </trkpt>
      <trkpt lat="62.323618958742" lon="17.43354063208">
        <ele>15.6</ele>
        <time>2018-07-27T12:13:13Z</time>
      </trkpt>
      <trkpt lat="62.323658940405" lon="17.433159171811">
        <ele>16.2</ele>
        <time>2018-07-27T12:13:19Z</time>
      </trkpt>
      <trkpt lat="62.32371216547" lon="17.432804365984">
        <ele>16.4</ele>
        <time>2018-07-27T12:13:25Z</time>
      </trkpt>
      <trkpt lat="62.323717781343" lon="17.432685929737">
        <ele>16.6</ele>
        <time>2018-07-27T12:13:27Z</time>
      </trkpt>
      <trkpt lat="62.323776119367" lon="17.432407818295">
        <ele>17.2</ele>
        <time>2018-07-27T12:13:33Z</time>
      </trkpt>
      <trkpt lat="62.323915929459" lon="17.432177232226">
        <ele>17.4</ele>
        <time>2018-07-27T12:13:39Z</time>
      </trkpt>
      <trkpt lat="62.323968819248" lon="17.432160468426">
        <ele>17.6</ele>
        <time>2018-07-27T12:13:41Z</time>
      </trkpt>
      <trkpt lat="62.32414299513" lon="17.432126354093">
        <ele>18</ele>
        <time>2018-07-27T12:13:47Z</time>
      </trkpt>
      <trkpt lat="62.32429806028" lon="17.432018898135">
        <ele>18.8</ele>
        <time>2018-07-27T12:13:53Z</time>
      </trkpt>
      <trkpt lat="62.324449018299" lon="17.431788563523">
        <ele>18.4</ele>
        <time>2018-07-27T12:13:58Z</time>
      </trkpt>
      <trkpt lat="62.324630234977" lon="17.431517995791">
        <ele>19.2</ele>
        <time>2018-07-27T12:14:04Z</time>
      </trkpt>
      <trkpt lat="62.324768955422" lon="17.431209709509">
        <ele>19.4</ele>
        <time>2018-07-27T12:14:10Z</time>
      </trkpt>
      <trkpt lat="62.324798711167" lon="17.431118682075">
        <ele>19.8</ele>
        <time>2018-07-27T12:14:12Z</time>
      </trkpt>
      <trkpt lat="62.324873393896" lon="17.430860854831">
        <ele>19.4</ele>
        <time>2018-07-27T12:14:18Z</time>
      </trkpt>
      <trkpt lat="62.32493676106" lon="17.430552568549">
        <ele>20.6</ele>
        <time>2018-07-27T12:14:24Z</time>
      </trkpt>
      <trkpt lat="62.324991159591" lon="17.430327263077">
        <ele>20.8</ele>
        <time>2018-07-27T12:14:28Z</time>
      </trkpt>
      <trkpt lat="62.325072212564" lon="17.429972876345">
        <ele>21.6</ele>
        <time>2018-07-27T12:14:34Z</time>
      </trkpt>
      <trkpt lat="62.325159300505" lon="17.429599546519">
        <ele>21.8</ele>
        <time>2018-07-27T12:14:40Z</time>
      </trkpt>
      <trkpt lat="62.325179249427" lon="17.42953324569">
        <ele>21.8</ele>
        <time>2018-07-27T12:14:41Z</time>
      </trkpt>
      <trkpt lat="62.325277150019" lon="17.429098560356">
        <ele>22</ele>
        <time>2018-07-27T12:14:47Z</time>
      </trkpt>
      <trkpt lat="62.325354347318" lon="17.428646692127">
        <ele>21.8</ele>
        <time>2018-07-27T12:14:53Z</time>
      </trkpt>
      <trkpt lat="62.325426515477" lon="17.428247965144">
        <ele>22.2</ele>
        <time>2018-07-27T12:14:59Z</time>
      </trkpt>
      <trkpt lat="62.325497593989" lon="17.427833312551">
        <ele>22.6</ele>
        <time>2018-07-27T12:15:05Z</time>
      </trkpt>
      <trkpt lat="62.325533133245" lon="17.427644384525">
        <ele>23</ele>
        <time>2018-07-27T12:15:08Z</time>
      </trkpt>
      <trkpt lat="62.325614605313" lon="17.427219254557">
        <ele>22.6</ele>
        <time>2018-07-27T12:15:14Z</time>
      </trkpt>
      <trkpt lat="62.325701693254" lon="17.426778869531">
        <ele>22.6</ele>
        <time>2018-07-27T12:15:20Z</time>
      </trkpt>
      <trkpt lat="62.325753074301" lon="17.426344268016">
        <ele>22.8</ele>
        <time>2018-07-27T12:15:26Z</time>
      </trkpt>
      <trkpt lat="62.325825410098" lon="17.425972530751">
        <ele>22.8</ele>
        <time>2018-07-27T12:15:32Z</time>
      </trkpt>
      <trkpt lat="62.325938984843" lon="17.425572043569">
        <ele>22.4</ele>
        <time>2018-07-27T12:15:38Z</time>
      </trkpt>
      <trkpt lat="62.325983073637" lon="17.425444303413">
        <ele>21.6</ele>
        <time>2018-07-27T12:15:40Z</time>
      </trkpt>
      <trkpt lat="62.326148616162" lon="17.425105590834">
        <ele>21.8</ele>
        <time>2018-07-27T12:15:46Z</time>
      </trkpt>
      <trkpt lat="62.326271243359" lon="17.424818091664">
        <ele>22.6</ele>
        <time>2018-07-27T12:15:51Z</time>
      </trkpt>
      <trkpt lat="62.32642371012" lon="17.424464040208">
        <ele>22.6</ele>
        <time>2018-07-27T12:15:57Z</time>
      </trkpt>
      <trkpt lat="62.326560838004" lon="17.424139744497">
        <ele>22.8</ele>
        <time>2018-07-27T12:16:03Z</time>
      </trkpt>
      <trkpt lat="62.326700731915" lon="17.423799523176">
        <ele>22.8</ele>
        <time>2018-07-27T12:16:09Z</time>
      </trkpt>
      <trkpt lat="62.32687130358" lon="17.423449243575">
        <ele>22.8</ele>
        <time>2018-07-27T12:16:15Z</time>
      </trkpt>
      <trkpt lat="62.327049502774" lon="17.423193595625">
        <ele>22.6</ele>
        <time>2018-07-27T12:16:21Z</time>
      </trkpt>
      <trkpt lat="62.327196186024" lon="17.422868545543">
        <ele>23</ele>
        <time>2018-07-27T12:16:27Z</time>
      </trkpt>
      <trkpt lat="62.327296768824" lon="17.422635528723">
        <ele>21.4</ele>
        <time>2018-07-27T12:16:31Z</time>
      </trkpt>
      <trkpt lat="62.327357034685" lon="17.422530000602">
        <ele>20.2</ele>
        <time>2018-07-27T12:16:33Z</time>
      </trkpt>
      <trkpt lat="62.327438925848" lon="17.422433189657">
        <ele>19.2</ele>
        <time>2018-07-27T12:16:35Z</time>
      </trkpt>
      <trkpt lat="62.327485948307" lon="17.422390525786">
        <ele>18.6</ele>
        <time>2018-07-27T12:16:36Z</time>
      </trkpt>
      <trkpt lat="62.327536994078" lon="17.422351382313">
        <ele>18</ele>
        <time>2018-07-27T12:16:37Z</time>
      </trkpt>
      <trkpt lat="62.327642773656" lon="17.422284662389">
        <ele>17</ele>
        <time>2018-07-27T12:16:39Z</time>
      </trkpt>
      <trkpt lat="62.327811333665" lon="17.422194976059">
        <ele>15.8</ele>
        <time>2018-07-27T12:16:42Z</time>
      </trkpt>
      <trkpt lat="62.328135880833" lon="17.421939831023">
        <ele>14.8</ele>
        <time>2018-07-27T12:16:48Z</time>
      </trkpt>
      <trkpt lat="62.328396641742" lon="17.421759955449">
        <ele>17.2</ele>
        <time>2018-07-27T12:16:54Z</time>
      </trkpt>
      <trkpt lat="62.328639297747" lon="17.421582342988">
        <ele>17</ele>
        <time>2018-07-27T12:17:00Z</time>
      </trkpt>
      <trkpt lat="62.328720937453" lon="17.421527106267">
        <ele>15.6</ele>
        <time>2018-07-27T12:17:02Z</time>
      </trkpt>
      <trkpt lat="62.328836942949" lon="17.42143213934">
        <ele>14.4</ele>
        <time>2018-07-27T12:17:05Z</time>
      </trkpt>
      <trkpt lat="62.32904724482" lon="17.421187890774">
        <ele>14.8</ele>
        <time>2018-07-27T12:17:10Z</time>
      </trkpt>
      <trkpt lat="62.329120921721" lon="17.421127792551">
        <ele>15.8</ele>
        <time>2018-07-27T12:17:12Z</time>
      </trkpt>
      <trkpt lat="62.329346227193" lon="17.420841550666">
        <ele>15.4</ele>
        <time>2018-07-27T12:17:18Z</time>
      </trkpt>
      <trkpt lat="62.329382939915" lon="17.420789750524">
        <ele>14.4</ele>
        <time>2018-07-27T12:17:19Z</time>
      </trkpt>
      <trkpt lat="62.329427615442" lon="17.420714900157">
        <ele>13.4</ele>
        <time>2018-07-27T12:17:20Z</time>
      </trkpt>
      <trkpt lat="62.329476984833" lon="17.420627728397">
        <ele>12.6</ele>
        <time>2018-07-27T12:17:21Z</time>
      </trkpt>
      <trkpt lat="62.329519397247" lon="17.420537036239">
        <ele>11.6</ele>
        <time>2018-07-27T12:17:22Z</time>
      </trkpt>
      <trkpt lat="62.329637079123" lon="17.42026621705">
        <ele>10</ele>
        <time>2018-07-27T12:17:24Z</time>
      </trkpt>
      <trkpt lat="62.329684436858" lon="17.420114923755">
        <ele>8.8</ele>
        <time>2018-07-27T12:17:25Z</time>
      </trkpt>
      <trkpt lat="62.329734309163" lon="17.419985926314">
        <ele>7.6</ele>
        <time>2018-07-27T12:17:26Z</time>
      </trkpt>
      <trkpt lat="62.329782505088" lon="17.419879308546">
        <ele>6.6</ele>
        <time>2018-07-27T12:17:27Z</time>
      </trkpt>
      <trkpt lat="62.329861714043" lon="17.419609579004">
        <ele>5.8</ele>
        <time>2018-07-27T12:17:29Z</time>
      </trkpt>
      <trkpt lat="62.329987526362" lon="17.419178414068">
        <ele>7.6</ele>
        <time>2018-07-27T12:17:33Z</time>
      </trkpt>
      <trkpt lat="62.33005223463" lon="17.419044471306">
        <ele>9.4</ele>
        <time>2018-07-27T12:17:35Z</time>
      </trkpt>
      <trkpt lat="62.330174778008" lon="17.418705171994">
        <ele>10.4</ele>
        <time>2018-07-27T12:17:40Z</time>
      </trkpt>
      <trkpt lat="62.330256333895" lon="17.418482464911">
        <ele>11.4</ele>
        <time>2018-07-27T12:17:44Z</time>
      </trkpt>
      <trkpt lat="62.33037493778" lon="17.418131598577">
        <ele>11.8</ele>
        <time>2018-07-27T12:17:50Z</time>
      </trkpt>
      <trkpt lat="62.330420619135" lon="17.417967648613">
        <ele>12.6</ele>
        <time>2018-07-27T12:17:53Z</time>
      </trkpt>
      <trkpt lat="62.330548610748" lon="17.417672773371">
        <ele>12.6</ele>
        <time>2018-07-27T12:17:59Z</time>
      </trkpt>
      <trkpt lat="62.33065908419" lon="17.417307573988">
        <ele>13.2</ele>
        <time>2018-07-27T12:18:05Z</time>
      </trkpt>
      <trkpt lat="62.330693366161" lon="17.417214199622">
        <ele>13.8</ele>
        <time>2018-07-27T12:18:07Z</time>
      </trkpt>
      <trkpt lat="62.330820519584" lon="17.416904572236">
        <ele>14.2</ele>
        <time>2018-07-27T12:18:13Z</time>
      </trkpt>
      <trkpt lat="62.330907607525" lon="17.416707765224">
        <ele>15</ele>
        <time>2018-07-27T12:18:17Z</time>
      </trkpt>
      <trkpt lat="62.331066025435" lon="17.416533337885">
        <ele>15.2</ele>
        <time>2018-07-27T12:18:23Z</time>
      </trkpt>
      <trkpt lat="62.331251516882" lon="17.416481202467">
        <ele>15.8</ele>
        <time>2018-07-27T12:18:29Z</time>
      </trkpt>
      <trkpt lat="62.331290325079" lon="17.416472317653">
        <ele>16</ele>
        <time>2018-07-27T12:18:30Z</time>
      </trkpt>
      <trkpt lat="62.331498280018" lon="17.416432922723">
        <ele>16</ele>
        <time>2018-07-27T12:18:36Z</time>
      </trkpt>
      <trkpt lat="62.331669606054" lon="17.416337955796">
        <ele>16.4</ele>
        <time>2018-07-27T12:18:42Z</time>
      </trkpt>
      <trkpt lat="62.331772871062" lon="17.416057078327">
        <ele>16.8</ele>
        <time>2018-07-27T12:18:48Z</time>
      </trkpt>
      <trkpt lat="62.331766165542" lon="17.415937971528">
        <ele>17.2</ele>
        <time>2018-07-27T12:18:50Z</time>
      </trkpt>
      <trkpt lat="62.331663654905" lon="17.415500687805">
        <ele>17.4</ele>
        <time>2018-07-27T12:18:56Z</time>
      </trkpt>
      <trkpt lat="62.331637922472" lon="17.415145798159">
        <ele>17.6</ele>
        <time>2018-07-27T12:19:02Z</time>
      </trkpt>
      <trkpt lat="62.331660218326" lon="17.414771127229">
        <ele>18.2</ele>
        <time>2018-07-27T12:19:08Z</time>
      </trkpt>
      <trkpt lat="62.331666504751" lon="17.414705245495">
        <ele>18.4</ele>
        <time>2018-07-27T12:19:09Z</time>
      </trkpt>
      <trkpt lat="62.331759543841" lon="17.414354127704">
        <ele>19.2</ele>
        <time>2018-07-27T12:19:15Z</time>
      </trkpt>
      <trkpt lat="62.331802207712" lon="17.414116249382">
        <ele>19.4</ele>
        <time>2018-07-27T12:19:19Z</time>
      </trkpt>
      <trkpt lat="62.331888541282" lon="17.413810980584">
        <ele>20.2</ele>
        <time>2018-07-27T12:19:25Z</time>
      </trkpt>
      <trkpt lat="62.331933468266" lon="17.413613335382">
        <ele>20</ele>
        <time>2018-07-27T12:19:30Z</time>
      </trkpt>
      <trkpt lat="62.331872364215" lon="17.413679552392">
        <ele>20</ele>
        <time>2018-07-27T12:24:32Z</time>
      </trkpt>
      <trkpt lat="62.33187613607" lon="17.41369816021">
        <ele>19.8</ele>
        <time>2018-07-27T12:24:34Z</time>
      </trkpt>
      <trkpt lat="62.331869682007" lon="17.413738058054">
        <ele>21</ele>
        <time>2018-07-27T12:24:36Z</time>
      </trkpt>
      <trkpt lat="62.331853756397" lon="17.413794132965">
        <ele>21.2</ele>
        <time>2018-07-27T12:24:38Z</time>
      </trkpt>
      <trkpt lat="62.331774044528" lon="17.414104514722">
        <ele>20.4</ele>
        <time>2018-07-27T12:24:44Z</time>
      </trkpt>
      <trkpt lat="62.331664157819" lon="17.414515563098">
        <ele>19.6</ele>
        <time>2018-07-27T12:24:50Z</time>
      </trkpt>
      <trkpt lat="62.331594839506" lon="17.414826615407">
        <ele>19</ele>
        <time>2018-07-27T12:24:54Z</time>
      </trkpt>
      <trkpt lat="62.331572124557" lon="17.41534436537">
        <ele>19.4</ele>
        <time>2018-07-27T12:25:00Z</time>
      </trkpt>
      <trkpt lat="62.331620236663" lon="17.415561791856">
        <ele>19.2</ele>
        <time>2018-07-27T12:25:02Z</time>
      </trkpt>
      <trkpt lat="62.331678742325" lon="17.415765220569">
        <ele>18.8</ele>
        <time>2018-07-27T12:25:04Z</time>
      </trkpt>
      <trkpt lat="62.331751161941" lon="17.416055904861">
        <ele>18.4</ele>
        <time>2018-07-27T12:25:07Z</time>
      </trkpt>
      <trkpt lat="62.331773373976" lon="17.416334603036">
        <ele>18.2</ele>
        <time>2018-07-27T12:25:10Z</time>
      </trkpt>
      <trkpt lat="62.331744121145" lon="17.416494613507">
        <ele>17.4</ele>
        <time>2018-07-27T12:25:12Z</time>
      </trkpt>
      <trkpt lat="62.331677820316" lon="17.41658907752">
        <ele>17.4</ele>
        <time>2018-07-27T12:25:14Z</time>
      </trkpt>
      <trkpt lat="62.331554857843" lon="17.416677003651">
        <ele>16</ele>
        <time>2018-07-27T12:25:17Z</time>
      </trkpt>
      <trkpt lat="62.331331815484" lon="17.416751351104">
        <ele>16.4</ele>
        <time>2018-07-27T12:25:23Z</time>
      </trkpt>
      <trkpt lat="62.331086141995" lon="17.416791835681">
        <ele>16.4</ele>
        <time>2018-07-27T12:25:29Z</time>
      </trkpt>
      <trkpt lat="62.330948427378" lon="17.41693022085">
        <ele>16.4</ele>
        <time>2018-07-27T12:25:33Z</time>
      </trkpt>
      <trkpt lat="62.330751871823" lon="17.417379323052">
        <ele>15.6</ele>
        <time>2018-07-27T12:25:39Z</time>
      </trkpt>
      <trkpt lat="62.330636788336" lon="17.417679897986">
        <ele>14.6</ele>
        <time>2018-07-27T12:25:43Z</time>
      </trkpt>
      <trkpt lat="62.330578450312" lon="17.417810152712">
        <ele>13.2</ele>
        <time>2018-07-27T12:25:45Z</time>
      </trkpt>
      <trkpt lat="62.330517681537" lon="17.417925906751">
        <ele>11.8</ele>
        <time>2018-07-27T12:25:47Z</time>
      </trkpt>
      <trkpt lat="62.330330094615" lon="17.418241066191">
        <ele>11.2</ele>
        <time>2018-07-27T12:25:53Z</time>
      </trkpt>
      <trkpt lat="62.330225656141" lon="17.41841214077">
        <ele>10.8</ele>
        <time>2018-07-27T12:25:56Z</time>
      </trkpt>
      <trkpt lat="62.330025999283" lon="17.418875492202">
        <ele>10.6</ele>
        <time>2018-07-27T12:26:02Z</time>
      </trkpt>
      <trkpt lat="62.329953244391" lon="17.419037514329">
        <ele>11</ele>
        <time>2018-07-27T12:26:04Z</time>
      </trkpt>
      <trkpt lat="62.329730034394" lon="17.419540009234">
        <ele>10.6</ele>
        <time>2018-07-27T12:26:10Z</time>
      </trkpt>
      <trkpt lat="62.329651160715" lon="17.41968702776">
        <ele>9.4</ele>
        <time>2018-07-27T12:26:12Z</time>
      </trkpt>
      <trkpt lat="62.329456030083" lon="17.420087766399">
        <ele>9.6</ele>
        <time>2018-07-27T12:26:18Z</time>
      </trkpt>
      <trkpt lat="62.329421999569" lon="17.420219110772">
        <ele>10.6</ele>
        <time>2018-07-27T12:26:20Z</time>
      </trkpt>
      <trkpt lat="62.329402805018" lon="17.420372918637">
        <ele>11.6</ele>
        <time>2018-07-27T12:26:23Z</time>
      </trkpt>
      <trkpt lat="62.329393752566" lon="17.420497222214">
        <ele>12.8</ele>
        <time>2018-07-27T12:26:26Z</time>
      </trkpt>
      <trkpt lat="62.329360895518" lon="17.420675672865">
        <ele>14</ele>
        <time>2018-07-27T12:26:30Z</time>
      </trkpt>
      <trkpt lat="62.329306916082" lon="17.42086468471">
        <ele>14.6</ele>
        <time>2018-07-27T12:26:36Z</time>
      </trkpt>
      <trkpt lat="62.329273220844" lon="17.420959903094">
        <ele>15</ele>
        <time>2018-07-27T12:26:39Z</time>
      </trkpt>
      <trkpt lat="62.329180684668" lon="17.421148663482">
        <ele>15.8</ele>
        <time>2018-07-27T12:26:45Z</time>
      </trkpt>
      <trkpt lat="62.329051351951" lon="17.421267686462">
        <ele>16</ele>
        <time>2018-07-27T12:26:51Z</time>
      </trkpt>
      <trkpt lat="62.328874074766" lon="17.421409005296">
        <ele>16</ele>
        <time>2018-07-27T12:26:57Z</time>
      </trkpt>
      <trkpt lat="62.32869436683" lon="17.421520400747">
        <ele>16</ele>
        <time>2018-07-27T12:27:03Z</time>
      </trkpt>
      <trkpt lat="62.328626221983" lon="17.421580666608">
        <ele>17.2</ele>
        <time>2018-07-27T12:27:07Z</time>
      </trkpt>
      <trkpt lat="62.328592862021" lon="17.421620312995">
        <ele>17.4</ele>
        <time>2018-07-27T12:27:09Z</time>
      </trkpt>
      <trkpt lat="62.328432348636" lon="17.421696588285">
        <ele>17.6</ele>
        <time>2018-07-27T12:27:15Z</time>
      </trkpt>
      <trkpt lat="62.328241576592" lon="17.421799015103">
        <ele>17.6</ele>
        <time>2018-07-27T12:27:21Z</time>
      </trkpt>
      <trkpt lat="62.32807829718" lon="17.421907141613">
        <ele>18</ele>
        <time>2018-07-27T12:27:27Z</time>
      </trkpt>
      <trkpt lat="62.327897751054" lon="17.422048795723">
        <ele>17.6</ele>
        <time>2018-07-27T12:27:33Z</time>
      </trkpt>
      <trkpt lat="62.327716534376" lon="17.422147869781">
        <ele>18</ele>
        <time>2018-07-27T12:27:39Z</time>
      </trkpt>
      <trkpt lat="62.327665488605" lon="17.422202519769">
        <ele>18.4</ele>
        <time>2018-07-27T12:27:41Z</time>
      </trkpt>
      <trkpt lat="62.327567671832" lon="17.422325901337">
        <ele>19.6</ele>
        <time>2018-07-27T12:27:45Z</time>
      </trkpt>
      <trkpt lat="62.327429789577" lon="17.422493036423">
        <ele>19.8</ele>
        <time>2018-07-27T12:27:51Z</time>
      </trkpt>
      <trkpt lat="62.327364913671" lon="17.422624967529">
        <ele>20.6</ele>
        <time>2018-07-27T12:27:55Z</time>
      </trkpt>
      <trkpt lat="62.327266342527" lon="17.422859073996">
        <ele>21.4</ele>
        <time>2018-07-27T12:28:01Z</time>
      </trkpt>
      <trkpt lat="62.327251506564" lon="17.42288807537">
        <ele>21.6</ele>
        <time>2018-07-27T12:28:02Z</time>
      </trkpt>
      <trkpt lat="62.327153857429" lon="17.423091336445">
        <ele>22.2</ele>
        <time>2018-07-27T12:28:08Z</time>
      </trkpt>
      <trkpt lat="62.327068781144" lon="17.423229470157">
        <ele>22.8</ele>
        <time>2018-07-27T12:28:12Z</time>
      </trkpt>
      <trkpt lat="62.326951266906" lon="17.423483022632">
        <ele>23.2</ele>
        <time>2018-07-27T12:28:18Z</time>
      </trkpt>
      <trkpt lat="62.326845990242" lon="17.423763900101">
        <ele>23</ele>
        <time>2018-07-27T12:28:24Z</time>
      </trkpt>
      <trkpt lat="62.326735432981" lon="17.424055757859">
        <ele>22.8</ele>
        <time>2018-07-27T12:28:30Z</time>
      </trkpt>
      <trkpt lat="62.326573075578" lon="17.42439011185">
        <ele>23</ele>
        <time>2018-07-27T12:28:36Z</time>
      </trkpt>
      <trkpt lat="62.326397558592" lon="17.424721532176">
        <ele>22.8</ele>
        <time>2018-07-27T12:28:42Z</time>
      </trkpt>
      <trkpt lat="62.326243666908" lon="17.425026465698">
        <ele>22.4</ele>
        <time>2018-07-27T12:28:48Z</time>
      </trkpt>
      <trkpt lat="62.326097318934" lon="17.425416559324">
        <ele>22.8</ele>
        <time>2018-07-27T12:28:54Z</time>
      </trkpt>
      <trkpt lat="62.325949965132" lon="17.42580916752">
        <ele>22.6</ele>
        <time>2018-07-27T12:29:00Z</time>
      </trkpt>
      <trkpt lat="62.325843012088" lon="17.426150562307">
        <ele>22.8</ele>
        <time>2018-07-27T12:29:06Z</time>
      </trkpt>
      <trkpt lat="62.325755588871" lon="17.426512660387">
        <ele>23</ele>
        <time>2018-07-27T12:29:12Z</time>
      </trkpt>
      <trkpt lat="62.325660202849" lon="17.426996128379">
        <ele>22.8</ele>
        <time>2018-07-27T12:29:18Z</time>
      </trkpt>
      <trkpt lat="62.325621897566" lon="17.427233419968">
        <ele>22.8</ele>
        <time>2018-07-27T12:29:21Z</time>
      </trkpt>
      <trkpt lat="62.32557462365" lon="17.427683611817">
        <ele>22.4</ele>
        <time>2018-07-27T12:29:27Z</time>
      </trkpt>
      <trkpt lat="62.325555680556" lon="17.427817806036">
        <ele>22.6</ele>
        <time>2018-07-27T12:29:29Z</time>
      </trkpt>
      <trkpt lat="62.325484015311" lon="17.428243522737">
        <ele>22.4</ele>
        <time>2018-07-27T12:29:35Z</time>
      </trkpt>
      <trkpt lat="62.325422827441" lon="17.428719447019">
        <ele>22.4</ele>
        <time>2018-07-27T12:29:41Z</time>
      </trkpt>
      <trkpt lat="62.325307073402" lon="17.429202076821">
        <ele>22.6</ele>
        <time>2018-07-27T12:29:47Z</time>
      </trkpt>
      <trkpt lat="62.325177992142" lon="17.42960449184">
        <ele>23</ele>
        <time>2018-07-27T12:29:53Z</time>
      </trkpt>
      <trkpt lat="62.325089060183" lon="17.429975642372">
        <ele>22</ele>
        <time>2018-07-27T12:29:59Z</time>
      </trkpt>
      <trkpt lat="62.324984202614" lon="17.43034293723">
        <ele>22.2</ele>
        <time>2018-07-27T12:30:05Z</time>
      </trkpt>
      <trkpt lat="62.32488982242" lon="17.430787597025">
        <ele>22.8</ele>
        <time>2018-07-27T12:30:11Z</time>
      </trkpt>
      <trkpt lat="62.324860234313" lon="17.430945176745">
        <ele>21.6</ele>
        <time>2018-07-27T12:30:13Z</time>
      </trkpt>
      <trkpt lat="62.324820504107" lon="17.431182887429">
        <ele>21.6</ele>
        <time>2018-07-27T12:30:16Z</time>
      </trkpt>
      <trkpt lat="62.324755041468" lon="17.431373240378">
        <ele>20.4</ele>
        <time>2018-07-27T12:30:19Z</time>
      </trkpt>
      <trkpt lat="62.324701397308" lon="17.431494526471">
        <ele>18.4</ele>
        <time>2018-07-27T12:30:21Z</time>
      </trkpt>
      <trkpt lat="62.324630318796" lon="17.431623859188">
        <ele>17.2</ele>
        <time>2018-07-27T12:30:24Z</time>
      </trkpt>
      <trkpt lat="62.32445731638" lon="17.431953686953">
        <ele>16.8</ele>
        <time>2018-07-27T12:30:30Z</time>
      </trkpt>
      <trkpt lat="62.324371485724" lon="17.432144961911">
        <ele>18.2</ele>
        <time>2018-07-27T12:30:33Z</time>
      </trkpt>
      <trkpt lat="62.324188089752" lon="17.432322574372">
        <ele>18.4</ele>
        <time>2018-07-27T12:30:39Z</time>
      </trkpt>
      <trkpt lat="62.323955072932" lon="17.432399771671">
        <ele>18.2</ele>
        <time>2018-07-27T12:30:45Z</time>
      </trkpt>
      <trkpt lat="62.323804114913" lon="17.432726581952">
        <ele>17.6</ele>
        <time>2018-07-27T12:30:51Z</time>
      </trkpt>
      <trkpt lat="62.32371887099" lon="17.433170319738">
        <ele>17.8</ele>
        <time>2018-07-27T12:30:57Z</time>
      </trkpt>
      <trkpt lat="62.323707220149" lon="17.433246175933">
        <ele>17.2</ele>
        <time>2018-07-27T12:30:58Z</time>
      </trkpt>
      <trkpt lat="62.323687187408" lon="17.43339562521">
        <ele>15.6</ele>
        <time>2018-07-27T12:31:00Z</time>
      </trkpt>
      <trkpt lat="62.323654833274" lon="17.433535100026">
        <ele>14.6</ele>
        <time>2018-07-27T12:31:02Z</time>
      </trkpt>
      <trkpt lat="62.323593561585" lon="17.433956541958">
        <ele>15.4</ele>
        <time>2018-07-27T12:31:08Z</time>
      </trkpt>
      <trkpt lat="62.3235671586" lon="17.434206238759">
        <ele>13.2</ele>
        <time>2018-07-27T12:31:12Z</time>
      </trkpt>
      <trkpt lat="62.323523405082" lon="17.434522068751">
        <ele>12.8</ele>
        <time>2018-07-27T12:31:16Z</time>
      </trkpt>
      <trkpt lat="62.32350932349" lon="17.434718540487">
        <ele>12.6</ele>
        <time>2018-07-27T12:31:18Z</time>
      </trkpt>
      <trkpt lat="62.32348669236" lon="17.435028670787">
        <ele>12</ele>
        <time>2018-07-27T12:31:21Z</time>
      </trkpt>
      <trkpt lat="62.323460457013" lon="17.435233859699">
        <ele>11.2</ele>
        <time>2018-07-27T12:31:23Z</time>
      </trkpt>
      <trkpt lat="62.323435646589" lon="17.435323713667">
        <ele>10.8</ele>
        <time>2018-07-27T12:31:24Z</time>
      </trkpt>
      <trkpt lat="62.323402202808" lon="17.435408203219">
        <ele>10.2</ele>
        <time>2018-07-27T12:31:25Z</time>
      </trkpt>
      <trkpt lat="62.323354174521" lon="17.43547768917">
        <ele>9.6</ele>
        <time>2018-07-27T12:31:26Z</time>
      </trkpt>
      <trkpt lat="62.323253172626" lon="17.435567626957">
        <ele>8.8</ele>
        <time>2018-07-27T12:31:28Z</time>
      </trkpt>
      <trkpt lat="62.323207826547" lon="17.435594365218">
        <ele>8.6</ele>
        <time>2018-07-27T12:31:29Z</time>
      </trkpt>
      <trkpt lat="62.323083020056" lon="17.435684303005">
        <ele>7.4</ele>
        <time>2018-07-27T12:31:32Z</time>
      </trkpt>
      <trkpt lat="62.323006912404" lon="17.435739623545">
        <ele>5.6</ele>
        <time>2018-07-27T12:31:34Z</time>
      </trkpt>
      <trkpt lat="62.322791162298" lon="17.435958307316">
        <ele>5.4</ele>
        <time>2018-07-27T12:31:40Z</time>
      </trkpt>
      <trkpt lat="62.322594355286" lon="17.436140865098">
        <ele>6.8</ele>
        <time>2018-07-27T12:31:45Z</time>
      </trkpt>
      <trkpt lat="62.322359997362" lon="17.436332475332">
        <ele>7</ele>
        <time>2018-07-27T12:31:51Z</time>
      </trkpt>
      <trkpt lat="62.322144582532" lon="17.436495168011">
        <ele>6.6</ele>
        <time>2018-07-27T12:31:57Z</time>
      </trkpt>
      <trkpt lat="62.321982644224" lon="17.436586363083">
        <ele>7.4</ele>
        <time>2018-07-27T12:32:03Z</time>
      </trkpt>
      <trkpt lat="62.321854652611" lon="17.436628188764">
        <ele>7.8</ele>
        <time>2018-07-27T12:32:08Z</time>
      </trkpt>
      <trkpt lat="62.321726074265" lon="17.436642940908">
        <ele>9</ele>
        <time>2018-07-27T12:32:13Z</time>
      </trkpt>
      <trkpt lat="62.321577798454" lon="17.436618130484">
        <ele>9.8</ele>
        <time>2018-07-27T12:32:19Z</time>
      </trkpt>
      <trkpt lat="62.321429103548" lon="17.436631792981">
        <ele>10</ele>
        <time>2018-07-27T12:32:25Z</time>
      </trkpt>
      <trkpt lat="62.321301363392" lon="17.436640091062">
        <ele>11.2</ele>
        <time>2018-07-27T12:32:30Z</time>
      </trkpt>
      <trkpt lat="62.321117464506" lon="17.436700692199">
        <ele>11.6</ele>
        <time>2018-07-27T12:32:36Z</time>
      </trkpt>
      <trkpt lat="62.320931553964" lon="17.436807226148">
        <ele>11.4</ele>
        <time>2018-07-27T12:32:42Z</time>
      </trkpt>
      <trkpt lat="62.320781266497" lon="17.436891296605">
        <ele>12.2</ele>
        <time>2018-07-27T12:32:48Z</time>
      </trkpt>
      <trkpt lat="62.320618741456" lon="17.43700151859">
        <ele>12.2</ele>
        <time>2018-07-27T12:32:54Z</time>
      </trkpt>
      <trkpt lat="62.320534838637" lon="17.437034794733">
        <ele>13.2</ele>
        <time>2018-07-27T12:32:57Z</time>
      </trkpt>
      <trkpt lat="62.320363512601" lon="17.437038315131">
        <ele>13.6</ele>
        <time>2018-07-27T12:33:03Z</time>
      </trkpt>
      <trkpt lat="62.320186319235" lon="17.437037057846">
        <ele>13.8</ele>
        <time>2018-07-27T12:33:09Z</time>
      </trkpt>
      <trkpt lat="62.320026057307" lon="17.437062371184">
        <ele>14.2</ele>
        <time>2018-07-27T12:33:15Z</time>
      </trkpt>
      <trkpt lat="62.319976939373" lon="17.437080392269">
        <ele>14.2</ele>
        <time>2018-07-27T12:33:16Z</time>
      </trkpt>
      <trkpt lat="62.319734702463" lon="17.437254065237">
        <ele>14.4</ele>
        <time>2018-07-27T12:33:22Z</time>
      </trkpt>
      <trkpt lat="62.319632359464" lon="17.437305278646">
        <ele>15.4</ele>
        <time>2018-07-27T12:33:25Z</time>
      </trkpt>
      <trkpt lat="62.319494477209" lon="17.437398066279">
        <ele>15.4</ele>
        <time>2018-07-27T12:33:31Z</time>
      </trkpt>
      <trkpt lat="62.319354499479" lon="17.437544414253">
        <ele>15.2</ele>
        <time>2018-07-27T12:33:37Z</time>
      </trkpt>
      <trkpt lat="62.319176803199" lon="17.43772822932">
        <ele>15.8</ele>
        <time>2018-07-27T12:33:43Z</time>
      </trkpt>
      <trkpt lat="62.31903506527" lon="17.437902237564">
        <ele>16.2</ele>
        <time>2018-07-27T12:33:49Z</time>
      </trkpt>
      <trkpt lat="62.318873965152" lon="17.438099715128">
        <ele>16.4</ele>
        <time>2018-07-27T12:33:55Z</time>
      </trkpt>
      <trkpt lat="62.318703393487" lon="17.438258216857">
        <ele>16.4</ele>
        <time>2018-07-27T12:34:01Z</time>
      </trkpt>
      <trkpt lat="62.318544137387" lon="17.438360308399">
        <ele>16.8</ele>
        <time>2018-07-27T12:34:07Z</time>
      </trkpt>
      <trkpt lat="62.318368788039" lon="17.438453766584">
        <ele>16.6</ele>
        <time>2018-07-27T12:34:13Z</time>
      </trkpt>
      <trkpt lat="62.318167035706" lon="17.438594666323">
        <ele>17.4</ele>
        <time>2018-07-27T12:34:19Z</time>
      </trkpt>
      <trkpt lat="62.317953967808" lon="17.438802118348">
        <ele>16.6</ele>
        <time>2018-07-27T12:34:25Z</time>
      </trkpt>
      <trkpt lat="62.317924379701" lon="17.438851068644">
        <ele>16.2</ele>
        <time>2018-07-27T12:34:26Z</time>
      </trkpt>
      <trkpt lat="62.317735367856" lon="17.439104704938">
        <ele>16.4</ele>
        <time>2018-07-27T12:34:32Z</time>
      </trkpt>
      <trkpt lat="62.317630342649" lon="17.439218866416">
        <ele>15.8</ele>
        <time>2018-07-27T12:34:35Z</time>
      </trkpt>
      <trkpt lat="62.317532525876" lon="17.439358341232">
        <ele>15.2</ele>
        <time>2018-07-27T12:34:38Z</time>
      </trkpt>
      <trkpt lat="62.317444013012" lon="17.439479375868">
        <ele>13.8</ele>
        <time>2018-07-27T12:34:41Z</time>
      </trkpt>
      <trkpt lat="62.317250977855" lon="17.439703926969">
        <ele>13</ele>
        <time>2018-07-27T12:34:47Z</time>
      </trkpt>
      <trkpt lat="62.317189873804" lon="17.439805096502">
        <ele>12.8</ele>
        <time>2018-07-27T12:34:49Z</time>
      </trkpt>
      <trkpt lat="62.316963143409" lon="17.440112544594">
        <ele>11.8</ele>
        <time>2018-07-27T12:34:55Z</time>
      </trkpt>
      <trkpt lat="62.316771197899" lon="17.440449580793">
        <ele>12.2</ele>
        <time>2018-07-27T12:35:01Z</time>
      </trkpt>
      <trkpt lat="62.316552765585" lon="17.440807236466">
        <ele>11.8</ele>
        <time>2018-07-27T12:35:07Z</time>
      </trkpt>
      <trkpt lat="62.316514795578" lon="17.440880913367">
        <ele>11.8</ele>
        <time>2018-07-27T12:35:08Z</time>
      </trkpt>
      <trkpt lat="62.316372638554" lon="17.441166736157">
        <ele>11</ele>
        <time>2018-07-27T12:35:13Z</time>
      </trkpt>
      <trkpt lat="62.316314132892" lon="17.441278969798">
        <ele>9.4</ele>
        <time>2018-07-27T12:35:15Z</time>
      </trkpt>
      <trkpt lat="62.316209778237" lon="17.44154450839">
        <ele>8.2</ele>
        <time>2018-07-27T12:35:19Z</time>
      </trkpt>
      <trkpt lat="62.316036524364" lon="17.442064689104">
        <ele>7</ele>
        <time>2018-07-27T12:35:24Z</time>
      </trkpt>
      <trkpt lat="62.315958321237" lon="17.442288402015">
        <ele>5.8</ele>
        <time>2018-07-27T12:35:26Z</time>
      </trkpt>
      <trkpt lat="62.315881962128" lon="17.442483951742">
        <ele>4.8</ele>
        <time>2018-07-27T12:35:28Z</time>
      </trkpt>
      <trkpt lat="62.315726226426" lon="17.442785281047">
        <ele>4</ele>
        <time>2018-07-27T12:35:32Z</time>
      </trkpt>
      <trkpt lat="62.315653890629" lon="17.442920564913">
        <ele>3.6</ele>
        <time>2018-07-27T12:35:34Z</time>
      </trkpt>
      <trkpt lat="62.31549203614" lon="17.443237568371">
        <ele>3.8</ele>
        <time>2018-07-27T12:35:38Z</time>
      </trkpt>
      <trkpt lat="62.315321799751" lon="17.443611065835">
        <ele>4.8</ele>
        <time>2018-07-27T12:35:43Z</time>
      </trkpt>
      <trkpt lat="62.315227503376" lon="17.443805442096">
        <ele>3.4</ele>
        <time>2018-07-27T12:35:46Z</time>
      </trkpt>
      <trkpt lat="62.315149384068" lon="17.443920609402">
        <ele>2.2</ele>
        <time>2018-07-27T12:35:48Z</time>
      </trkpt>
      <trkpt lat="62.315011250356" lon="17.444061425322">
        <ele>1.8</ele>
        <time>2018-07-27T12:35:51Z</time>
      </trkpt>
      <trkpt lat="62.314831039506" lon="17.444213221531">
        <ele>3.4</ele>
        <time>2018-07-27T12:35:55Z</time>
      </trkpt>
      <trkpt lat="62.314569775683" lon="17.444414973864">
        <ele>3.4</ele>
        <time>2018-07-27T12:36:01Z</time>
      </trkpt>
      <trkpt lat="62.314320917072" lon="17.444598286017">
        <ele>3.4</ele>
        <time>2018-07-27T12:36:07Z</time>
      </trkpt>
      <trkpt lat="62.314065939674" lon="17.444768522406">
        <ele>3</ele>
        <time>2018-07-27T12:36:13Z</time>
      </trkpt>
      <trkpt lat="62.313843148772" lon="17.444923000823">
        <ele>2.6</ele>
        <time>2018-07-27T12:36:19Z</time>
      </trkpt>
      <trkpt lat="62.313643491914" lon="17.444986284168">
        <ele>3</ele>
        <time>2018-07-27T12:36:25Z</time>
      </trkpt>
      <trkpt lat="62.313444170332" lon="17.445073372109">
        <ele>3.4</ele>
        <time>2018-07-27T12:36:31Z</time>
      </trkpt>
      <trkpt lat="62.313247447139" lon="17.445219636264">
        <ele>4</ele>
        <time>2018-07-27T12:36:37Z</time>
      </trkpt>
      <trkpt lat="62.313027506083" lon="17.445360619822">
        <ele>3.8</ele>
        <time>2018-07-27T12:36:43Z</time>
      </trkpt>
      <trkpt lat="62.31281485728" lon="17.445519289189">
        <ele>3.8</ele>
        <time>2018-07-27T12:36:49Z</time>
      </trkpt>
      <trkpt lat="62.312629282014" lon="17.445616603048">
        <ele>2.2</ele>
        <time>2018-07-27T12:36:54Z</time>
      </trkpt>
      <trkpt lat="62.312481425298" lon="17.445694889994">
        <ele>1</ele>
        <time>2018-07-27T12:36:58Z</time>
      </trkpt>
      <trkpt lat="62.312258131482" lon="17.445897396698">
        <ele>1</ele>
        <time>2018-07-27T12:37:04Z</time>
      </trkpt>
      <trkpt lat="62.311991670881" lon="17.446133179545">
        <ele>0</ele>
        <time>2018-07-27T12:37:10Z</time>
      </trkpt>
      <trkpt lat="62.311812465859" lon="17.446261422615">
        <ele>0</ele>
        <time>2018-07-27T12:37:14Z</time>
      </trkpt>
      <trkpt lat="62.311647342429" lon="17.446413889376">
        <ele>0.8</ele>
        <time>2018-07-27T12:37:18Z</time>
      </trkpt>
      <trkpt lat="62.311430670314" lon="17.446629388025">
        <ele>1.4</ele>
        <time>2018-07-27T12:37:24Z</time>
      </trkpt>
      <trkpt lat="62.311364369485" lon="17.446677500131">
        <ele>1.8</ele>
        <time>2018-07-27T12:37:26Z</time>
      </trkpt>
      <trkpt lat="62.311199329874" lon="17.446848071796">
        <ele>2.2</ele>
        <time>2018-07-27T12:37:32Z</time>
      </trkpt>
      <trkpt lat="62.311066812035" lon="17.447046219912">
        <ele>2.6</ele>
        <time>2018-07-27T12:37:38Z</time>
      </trkpt>
      <trkpt lat="62.311024315802" lon="17.44709919352">
        <ele>3</ele>
        <time>2018-07-27T12:37:40Z</time>
      </trkpt>
      <trkpt lat="62.310908729401" lon="17.447225844029">
        <ele>4.4</ele>
        <time>2018-07-27T12:37:45Z</time>
      </trkpt>
      <trkpt lat="62.310795825208" lon="17.447333802901">
        <ele>5.2</ele>
        <time>2018-07-27T12:37:51Z</time>
      </trkpt>
      <trkpt lat="62.310755927364" lon="17.447373365469">
        <ele>5.4</ele>
        <time>2018-07-27T12:37:53Z</time>
      </trkpt>
      <trkpt lat="62.310627935751" lon="17.447515271036">
        <ele>5.8</ele>
        <time>2018-07-27T12:37:59Z</time>
      </trkpt>
      <trkpt lat="62.310488293297" lon="17.447639658432">
        <ele>6.4</ele>
        <time>2018-07-27T12:38:05Z</time>
      </trkpt>
      <trkpt lat="62.310377065484" lon="17.447797741066">
        <ele>7.6</ele>
        <time>2018-07-27T12:38:10Z</time>
      </trkpt>
      <trkpt lat="62.310245469654" lon="17.447993961345">
        <ele>8.2</ele>
        <time>2018-07-27T12:38:16Z</time>
      </trkpt>
      <trkpt lat="62.310111778349" lon="17.448175932394">
        <ele>8.2</ele>
        <time>2018-07-27T12:38:22Z</time>
      </trkpt>
      <trkpt lat="62.310009519169" lon="17.44829612884">
        <ele>8.6</ele>
        <time>2018-07-27T12:38:27Z</time>
      </trkpt>
      <trkpt lat="62.309930980766" lon="17.448389084111">
        <ele>10</ele>
        <time>2018-07-27T12:38:31Z</time>
      </trkpt>
      <trkpt lat="62.309836600572" lon="17.448535180628">
        <ele>11</ele>
        <time>2018-07-27T12:38:37Z</time>
      </trkpt>
      <trkpt lat="62.309708776597" lon="17.448744476671">
        <ele>11</ele>
        <time>2018-07-27T12:38:43Z</time>
      </trkpt>
      <trkpt lat="62.309565781383" lon="17.448971961437">
        <ele>10</ele>
        <time>2018-07-27T12:38:49Z</time>
      </trkpt>
      <trkpt lat="62.309539043122" lon="17.449015463498">
        <ele>9.8</ele>
        <time>2018-07-27T12:38:50Z</time>
      </trkpt>
      <trkpt lat="62.309344666861" lon="17.449323246866">
        <ele>9</ele>
        <time>2018-07-27T12:38:56Z</time>
      </trkpt>
      <trkpt lat="62.309178034689" lon="17.449657517038">
        <ele>9.6</ele>
        <time>2018-07-27T12:39:02Z</time>
      </trkpt>
      <trkpt lat="62.309053814931" lon="17.450030930683">
        <ele>10.2</ele>
        <time>2018-07-27T12:39:08Z</time>
      </trkpt>
      <trkpt lat="62.30894744862" lon="17.450419096472">
        <ele>10.4</ele>
        <time>2018-07-27T12:39:14Z</time>
      </trkpt>
      <trkpt lat="62.308873855538" lon="17.450766945322">
        <ele>8.4</ele>
        <time>2018-07-27T12:39:18Z</time>
      </trkpt>
      <trkpt lat="62.308833957694" lon="17.450975989908">
        <ele>6.8</ele>
        <time>2018-07-27T12:39:20Z</time>
      </trkpt>
      <trkpt lat="62.308789617443" lon="17.451204815778">
        <ele>5.2</ele>
        <time>2018-07-27T12:39:22Z</time>
      </trkpt>
      <trkpt lat="62.308732620523" lon="17.451473874768">
        <ele>4</ele>
        <time>2018-07-27T12:39:24Z</time>
      </trkpt>
      <trkpt lat="62.308673779585" lon="17.451744861595">
        <ele>2.6</ele>
        <time>2018-07-27T12:39:26Z</time>
      </trkpt>
      <trkpt lat="62.30861217262" lon="17.452010484006">
        <ele>1</ele>
        <time>2018-07-27T12:39:28Z</time>
      </trkpt>
      <trkpt lat="62.30850069335" lon="17.452336539916">
        <ele>0</ele>
        <time>2018-07-27T12:39:31Z</time>
      </trkpt>
      <trkpt lat="62.308378652886" lon="17.452655806487">
        <ele>0.6</ele>
        <time>2018-07-27T12:39:35Z</time>
      </trkpt>
      <trkpt lat="62.308339174137" lon="17.452829144179">
        <ele>1.2</ele>
        <time>2018-07-27T12:39:37Z</time>
      </trkpt>
      <trkpt lat="62.308269604367" lon="17.453494164125">
        <ele>0</ele>
        <time>2018-07-27T12:39:43Z</time>
      </trkpt>
      <trkpt lat="62.308251331825" lon="17.453857351852">
        <ele>0</ele>
        <time>2018-07-27T12:39:47Z</time>
      </trkpt>
      <trkpt lat="62.308198693493" lon="17.454262449079">
        <ele>0</ele>
        <time>2018-07-27T12:39:53Z</time>
      </trkpt>
      <trkpt lat="62.308227108134" lon="17.454390943606">
        <ele>0.2</ele>
        <time>2018-07-27T12:39:59Z</time>
      </trkpt>
      <trkpt lat="62.308221156985" lon="17.45421458843">
        <ele>0</ele>
        <time>2018-07-27T12:40:47Z</time>
      </trkpt>
      <trkpt lat="62.308226856677" lon="17.454159100252">
        <ele>0</ele>
        <time>2018-07-27T12:40:50Z</time>
      </trkpt>
      <trkpt lat="62.308250577454" lon="17.454082908781">
        <ele>0.2</ele>
        <time>2018-07-27T12:40:53Z</time>
      </trkpt>
      <trkpt lat="62.308319811948" lon="17.453753751568">
        <ele>0.6</ele>
        <time>2018-07-27T12:40:59Z</time>
      </trkpt>
      <trkpt lat="62.30835652467" lon="17.453323341003">
        <ele>1.2</ele>
        <time>2018-07-27T12:41:05Z</time>
      </trkpt>
      <trkpt lat="62.308391561012" lon="17.45292209945">
        <ele>2</ele>
        <time>2018-07-27T12:41:11Z</time>
      </trkpt>
      <trkpt lat="62.308408827726" lon="17.452828138351">
        <ele>2.4</ele>
        <time>2018-07-27T12:41:13Z</time>
      </trkpt>
      <trkpt lat="62.308465740827" lon="17.452572238944">
        <ele>3</ele>
        <time>2018-07-27T12:41:19Z</time>
      </trkpt>
      <trkpt lat="62.308520223177" lon="17.452386915135">
        <ele>3.4</ele>
        <time>2018-07-27T12:41:23Z</time>
      </trkpt>
      <trkpt lat="62.308655674681" lon="17.452040239751">
        <ele>3.6</ele>
        <time>2018-07-27T12:41:29Z</time>
      </trkpt>
      <trkpt lat="62.308752317988" lon="17.451671268513">
        <ele>3.4</ele>
        <time>2018-07-27T12:41:35Z</time>
      </trkpt>
      <trkpt lat="62.308805962148" lon="17.451375722719">
        <ele>4.4</ele>
        <time>2018-07-27T12:41:40Z</time>
      </trkpt>
      <trkpt lat="62.308863126706" lon="17.451107669557">
        <ele>5</ele>
        <time>2018-07-27T12:41:46Z</time>
      </trkpt>
      <trkpt lat="62.308902773093" lon="17.450969452026">
        <ele>5.6</ele>
        <time>2018-07-27T12:41:50Z</time>
      </trkpt>
      <trkpt lat="62.308938312349" lon="17.450822936414">
        <ele>6.6</ele>
        <time>2018-07-27T12:41:54Z</time>
      </trkpt>
      <trkpt lat="62.308969828293" lon="17.450557314003">
        <ele>7.8</ele>
        <time>2018-07-27T12:42:00Z</time>
      </trkpt>
      <trkpt lat="62.308996315097" lon="17.45034969434">
        <ele>8.4</ele>
        <time>2018-07-27T12:42:05Z</time>
      </trkpt>
      <trkpt lat="62.309049875438" lon="17.450114414407">
        <ele>9</ele>
        <time>2018-07-27T12:42:10Z</time>
      </trkpt>
      <trkpt lat="62.309118523199" lon="17.449821215545">
        <ele>10</ele>
        <time>2018-07-27T12:42:16Z</time>
      </trkpt>
      <trkpt lat="62.30923830055" lon="17.449519131869">
        <ele>10.2</ele>
        <time>2018-07-27T12:42:22Z</time>
      </trkpt>
      <trkpt lat="62.309379619384" lon="17.449243367359">
        <ele>9.8</ele>
        <time>2018-07-27T12:42:28Z</time>
      </trkpt>
      <trkpt lat="62.309533846344" lon="17.448991994178">
        <ele>10.6</ele>
        <time>2018-07-27T12:42:34Z</time>
      </trkpt>
      <trkpt lat="62.30966577745" lon="17.448757049521">
        <ele>10.6</ele>
        <time>2018-07-27T12:42:40Z</time>
      </trkpt>
      <trkpt lat="62.309682792707" lon="17.448715140021">
        <ele>11</ele>
        <time>2018-07-27T12:42:41Z</time>
      </trkpt>
      <trkpt lat="62.309799301117" lon="17.44852160195">
        <ele>11.6</ele>
        <time>2018-07-27T12:42:47Z</time>
      </trkpt>
      <trkpt lat="62.309928633834" lon="17.448342145471">
        <ele>11.4</ele>
        <time>2018-07-27T12:42:53Z</time>
      </trkpt>
      <trkpt lat="62.310071126134" lon="17.44811927075">
        <ele>9.4</ele>
        <time>2018-07-27T12:42:58Z</time>
      </trkpt>
      <trkpt lat="62.310148826347" lon="17.448010892783">
        <ele>8.2</ele>
        <time>2018-07-27T12:43:00Z</time>
      </trkpt>
      <trkpt lat="62.310189897657" lon="17.447963115953">
        <ele>7.8</ele>
        <time>2018-07-27T12:43:01Z</time>
      </trkpt>
      <trkpt lat="62.310280925091" lon="17.447880302781">
        <ele>7.2</ele>
        <time>2018-07-27T12:43:03Z</time>
      </trkpt>
      <trkpt lat="62.310419394079" lon="17.44773118878">
        <ele>5.8</ele>
        <time>2018-07-27T12:43:06Z</time>
      </trkpt>
      <trkpt lat="62.310621146412" lon="17.44750739205">
        <ele>4.8</ele>
        <time>2018-07-27T12:43:11Z</time>
      </trkpt>
      <trkpt lat="62.310878470742" lon="17.44717714519">
        <ele>3.6</ele>
        <time>2018-07-27T12:43:16Z</time>
      </trkpt>
      <trkpt lat="62.311022220327" lon="17.446990899372">
        <ele>2.4</ele>
        <time>2018-07-27T12:43:18Z</time>
      </trkpt>
      <trkpt lat="62.311163203885" lon="17.446834576937">
        <ele>0.8</ele>
        <time>2018-07-27T12:43:20Z</time>
      </trkpt>
      <trkpt lat="62.311299493579" lon="17.446713961396">
        <ele>0</ele>
        <time>2018-07-27T12:43:22Z</time>
      </trkpt>
      <trkpt lat="62.311434945083" lon="17.446584712498">
        <ele>0</ele>
        <time>2018-07-27T12:43:24Z</time>
      </trkpt>
      <trkpt lat="62.311802826674" lon="17.446313390395">
        <ele>0</ele>
        <time>2018-07-27T12:43:30Z</time>
      </trkpt>
      <trkpt lat="62.312111867327" lon="17.446018179877">
        <ele>0</ele>
        <time>2018-07-27T12:43:36Z</time>
      </trkpt>
      <trkpt lat="62.312183113477" lon="17.445929583194">
        <ele>1</ele>
        <time>2018-07-27T12:43:38Z</time>
      </trkpt>
      <trkpt lat="62.312329209994" lon="17.445702349885">
        <ele>2</ele>
        <time>2018-07-27T12:43:43Z</time>
      </trkpt>
      <trkpt lat="62.312501877134" lon="17.445549044934">
        <ele>2.8</ele>
        <time>2018-07-27T12:43:49Z</time>
      </trkpt>
      <trkpt lat="62.312673957541" lon="17.445456927853">
        <ele>3</ele>
        <time>2018-07-27T12:43:55Z</time>
      </trkpt>
      <trkpt lat="62.312831956356" lon="17.445385430246">
        <ele>3</ele>
        <time>2018-07-27T12:44:01Z</time>
      </trkpt>
      <trkpt lat="62.312858107884" lon="17.445367828256">
        <ele>3</ele>
        <time>2018-07-27T12:44:02Z</time>
      </trkpt>
      <trkpt lat="62.31303362487" lon="17.445215445314">
        <ele>3.6</ele>
        <time>2018-07-27T12:44:08Z</time>
      </trkpt>
      <trkpt lat="62.313158850456" lon="17.445126429536">
        <ele>4.2</ele>
        <time>2018-07-27T12:44:12Z</time>
      </trkpt>
      <trkpt lat="62.313343084618" lon="17.445012016601">
        <ele>3.8</ele>
        <time>2018-07-27T12:44:18Z</time>
      </trkpt>
      <trkpt lat="62.313545675141" lon="17.444881258961">
        <ele>4</ele>
        <time>2018-07-27T12:44:24Z</time>
      </trkpt>
      <trkpt lat="62.313760503238" lon="17.444802636739">
        <ele>4.2</ele>
        <time>2018-07-27T12:44:30Z</time>
      </trkpt>
      <trkpt lat="62.313991843678" lon="17.444649080331">
        <ele>3.8</ele>
        <time>2018-07-27T12:44:36Z</time>
      </trkpt>
      <trkpt lat="62.314147998475" lon="17.444538858346">
        <ele>3</ele>
        <time>2018-07-27T12:44:40Z</time>
      </trkpt>
      <trkpt lat="62.314351091912" lon="17.444390414897">
        <ele>3</ele>
        <time>2018-07-27T12:44:46Z</time>
      </trkpt>
      <trkpt lat="62.314541612499" lon="17.444301985852">
        <ele>3.2</ele>
        <time>2018-07-27T12:44:52Z</time>
      </trkpt>
      <trkpt lat="62.314754680397" lon="17.444155721697">
        <ele>3.2</ele>
        <time>2018-07-27T12:44:58Z</time>
      </trkpt>
      <trkpt lat="62.314957941472" lon="17.444030999025">
        <ele>3.4</ele>
        <time>2018-07-27T12:45:04Z</time>
      </trkpt>
      <trkpt lat="62.315156508683" lon="17.44386294193">
        <ele>3.6</ele>
        <time>2018-07-27T12:45:10Z</time>
      </trkpt>
      <trkpt lat="62.315259186958" lon="17.443683904546">
        <ele>4.2</ele>
        <time>2018-07-27T12:45:14Z</time>
      </trkpt>
      <trkpt lat="62.315393632634" lon="17.443438063419">
        <ele>4.6</ele>
        <time>2018-07-27T12:45:20Z</time>
      </trkpt>
      <trkpt lat="62.315407127493" lon="17.44338433544">
        <ele>4.6</ele>
        <time>2018-07-27T12:45:21Z</time>
      </trkpt>
      <trkpt lat="62.315475188521" lon="17.44320999192">
        <ele>5.4</ele>
        <time>2018-07-27T12:45:25Z</time>
      </trkpt>
      <trkpt lat="62.315610975301" lon="17.442985357">
        <ele>5.8</ele>
        <time>2018-07-27T12:45:31Z</time>
      </trkpt>
      <trkpt lat="62.315742990226" lon="17.442720656598">
        <ele>6.2</ele>
        <time>2018-07-27T12:45:37Z</time>
      </trkpt>
      <trkpt lat="62.315856229695" lon="17.442519826274">
        <ele>6.4</ele>
        <time>2018-07-27T12:45:42Z</time>
      </trkpt>
      <trkpt lat="62.315982880204" lon="17.442306255462">
        <ele>6.8</ele>
        <time>2018-07-27T12:45:48Z</time>
      </trkpt>
      <trkpt lat="62.316090084705" lon="17.442056726299">
        <ele>7.4</ele>
        <time>2018-07-27T12:45:54Z</time>
      </trkpt>
      <trkpt lat="62.316102406098" lon="17.442005261433">
        <ele>7.8</ele>
        <time>2018-07-27T12:45:55Z</time>
      </trkpt>
      <trkpt lat="62.316193182075" lon="17.441728239638">
        <ele>8.8</ele>
        <time>2018-07-27T12:46:01Z</time>
      </trkpt>
      <trkpt lat="62.316266607519" lon="17.441457504268">
        <ele>9.6</ele>
        <time>2018-07-27T12:46:07Z</time>
      </trkpt>
      <trkpt lat="62.316289573925" lon="17.441374607277">
        <ele>9.8</ele>
        <time>2018-07-27T12:46:09Z</time>
      </trkpt>
      <trkpt lat="62.316355288021" lon="17.441149050348">
        <ele>10.4</ele>
        <time>2018-07-27T12:46:15Z</time>
      </trkpt>
      <trkpt lat="62.316487638222" lon="17.440889127629">
        <ele>10.8</ele>
        <time>2018-07-27T12:46:21Z</time>
      </trkpt>
      <trkpt lat="62.316510939904" lon="17.44084042879">
        <ele>10.8</ele>
        <time>2018-07-27T12:46:22Z</time>
      </trkpt>
      <trkpt lat="62.316634572929" lon="17.440632473851">
        <ele>11.6</ele>
        <time>2018-07-27T12:46:28Z</time>
      </trkpt>
      <trkpt lat="62.316694754971" lon="17.440545218272">
        <ele>12</ele>
        <time>2018-07-27T12:46:31Z</time>
      </trkpt>
      <trkpt lat="62.316822327489" lon="17.440296359661">
        <ele>12.4</ele>
        <time>2018-07-27T12:46:37Z</time>
      </trkpt>
      <trkpt lat="62.316961802305" lon="17.440079855184">
        <ele>12.8</ele>
        <time>2018-07-27T12:46:43Z</time>
      </trkpt>
      <trkpt lat="62.317067078969" lon="17.439894531375">
        <ele>13</ele>
        <time>2018-07-27T12:46:47Z</time>
      </trkpt>
      <trkpt lat="62.317212756391" lon="17.439656150139">
        <ele>13.2</ele>
        <time>2018-07-27T12:46:53Z</time>
      </trkpt>
      <trkpt lat="62.317338401072" lon="17.439496474944">
        <ele>13.6</ele>
        <time>2018-07-27T12:46:59Z</time>
      </trkpt>
      <trkpt lat="62.317453568378" lon="17.439399915456">
        <ele>14</ele>
        <time>2018-07-27T12:47:04Z</time>
      </trkpt>
      <trkpt lat="62.317602011827" lon="17.439146027705">
        <ele>14.8</ele>
        <time>2018-07-27T12:47:10Z</time>
      </trkpt>
      <trkpt lat="62.31766881557" lon="17.439060448506">
        <ele>15</ele>
        <time>2018-07-27T12:47:14Z</time>
      </trkpt>
      <trkpt lat="62.317687674845" lon="17.439034716073">
        <ele>14.8</ele>
        <time>2018-07-27T12:47:16Z</time>
      </trkpt>
    </trkseg>
  </trk>
</gpx>